createdAt,value
2022-09-03T00:00:01.871Z,56.51
2022-09-03T00:05:01.252Z,56.12
2022-09-03T00:10:02.043Z,56.4
2022-09-03T00:15:01.436Z,56.36
2022-09-03T00:20:01.299Z,56.78
2022-09-03T00:25:02.012Z,56.85
2022-09-03T00:30:01.631Z,57.14
2022-09-03T00:35:02.022Z,57.31
2022-09-03T00:40:01.766Z,57.39
2022-09-03T00:45:01.550Z,57.55
2022-09-03T00:50:01.344Z,57.63
2022-09-03T00:55:01.240Z,57.76
2022-09-03T01:00:01.968Z,57.94
2022-09-03T01:05:01.564Z,58.12
2022-09-03T01:10:01.790Z,58.28
2022-09-03T01:15:01.997Z,58.82
2022-09-03T01:20:02.040Z,58.85
2022-09-03T01:25:02.073Z,59
2022-09-03T01:30:01.950Z,59.3
2022-09-03T01:35:01.599Z,59.46
2022-09-03T01:40:02.231Z,59.46
2022-09-03T01:50:01.894Z,59.96
2022-09-03T01:55:01.553Z,59.64
2022-09-03T02:00:01.413Z,59.88
2022-09-03T02:05:01.573Z,60.12
2022-09-03T02:10:01.713Z,60.2
2022-09-03T02:15:01.957Z,60.35
2022-09-03T02:20:01.838Z,60.37
2022-09-03T02:25:01.713Z,60.59
2022-09-03T02:30:01.218Z,60.93
2022-09-03T02:35:01.429Z,60.93
2022-09-03T02:40:01.737Z,61.27
2022-09-03T02:45:02.022Z,61.42
2022-09-03T02:50:02.088Z,61.7
2022-09-03T02:55:01.281Z,61.84
2022-09-03T03:00:02.102Z,61.81
2022-09-03T03:05:01.137Z,63.67
2022-09-03T03:10:01.950Z,62.25
2022-09-03T03:15:01.440Z,62.9
2022-09-03T03:20:01.838Z,64.55
2022-09-03T03:25:01.310Z,64.24
2022-09-03T03:30:01.500Z,66.97
2022-09-03T03:35:02.117Z,68.59
2022-09-03T03:40:01.839Z,67.57
2022-09-03T03:45:01.365Z,68.24
2022-09-03T03:50:01.144Z,65.75
2022-09-03T03:55:01.733Z,65.22
2022-09-03T04:00:01.804Z,64.86
2022-09-03T04:05:01.483Z,65.34
2022-09-03T04:10:01.820Z,66.58
2022-09-03T04:15:01.809Z,67.86
2022-09-03T04:20:01.265Z,65.61
2022-09-03T04:25:01.455Z,65.24
2022-09-03T04:30:01.862Z,64.94
2022-09-03T04:35:01.200Z,65.1
2022-09-03T04:40:01.523Z,64.77
2022-09-03T04:45:01.816Z,64.72
2022-09-03T04:50:01.767Z,64.59
2022-09-03T04:55:01.475Z,64.98
2022-09-03T05:00:01.423Z,64.54
2022-09-03T05:05:01.688Z,64.49
2022-09-03T05:10:01.391Z,64.44
2022-09-03T05:15:01.512Z,64.43
2022-09-03T05:20:01.975Z,64.38
2022-09-03T05:25:01.410Z,64.22
2022-09-03T05:30:01.360Z,63.63
2022-09-03T05:35:01.807Z,63.71
2022-09-03T05:40:01.833Z,63.61
2022-09-03T05:45:01.328Z,63.89
2022-09-03T05:50:01.755Z,63.87
2022-09-03T05:55:01.244Z,63.73
2022-09-03T06:00:01.633Z,64.06
2022-09-03T06:05:01.666Z,63.71
2022-09-03T06:10:01.782Z,63.71
2022-09-03T06:20:01.698Z,62.72
2022-09-03T06:25:01.737Z,62.45
2022-09-03T06:30:01.233Z,61.9
2022-09-03T06:35:01.189Z,62.46
2022-09-03T06:40:01.467Z,61.94
2022-09-03T06:45:01.288Z,62.44
2022-09-03T06:50:01.753Z,63.02
2022-09-03T06:55:01.664Z,63.36
2022-09-03T07:00:01.653Z,63.73
2022-09-03T07:05:01.525Z,64.19
2022-09-03T07:10:01.909Z,64.72
2022-09-03T07:15:01.701Z,65.76
2022-09-03T07:20:01.810Z,67.57
2022-09-03T07:25:01.447Z,70.92
2022-09-03T07:30:01.291Z,74.2
2022-09-03T07:35:01.363Z,78.67
2022-09-03T07:40:01.761Z,82.08
2022-09-03T07:45:01.341Z,85.24
2022-09-03T07:50:01.456Z,86.46
2022-09-03T07:55:01.852Z,87.29
2022-09-03T08:00:01.446Z,87.78
2022-09-03T08:05:01.926Z,89.91
2022-09-03T08:10:01.305Z,89.7
2022-09-03T08:15:01.270Z,90.1
2022-09-03T08:20:01.671Z,91.14
2022-09-03T08:25:01.238Z,90.45
2022-09-03T08:30:01.737Z,90.21
2022-09-03T08:35:01.320Z,89.9
2022-09-03T08:40:01.278Z,88.58
2022-09-03T08:45:01.563Z,87.56
2022-09-03T08:50:01.297Z,87.11
2022-09-03T08:55:01.361Z,86.15
2022-09-03T09:00:02.038Z,85.98
2022-09-03T09:05:02.098Z,85.56
2022-09-03T09:10:01.622Z,82.18
2022-09-03T09:15:01.279Z,80.19
2022-09-03T09:20:01.786Z,78.24
2022-09-03T09:25:01.957Z,78.18
2022-09-03T09:30:06.972Z,76.81
2022-09-03T09:35:02.200Z,74.27
2022-09-03T09:40:01.470Z,75.26
2022-09-03T09:45:01.758Z,71.95
2022-09-03T09:50:02.160Z,72.92
2022-09-03T09:55:02.082Z,71.11
2022-09-03T10:00:02.548Z,68.12
2022-09-03T10:05:06.601Z,69.08
2022-09-03T10:10:01.438Z,70.47
2022-09-03T10:15:01.345Z,71.4
2022-09-03T10:20:01.565Z,72.17
2022-09-03T10:25:01.250Z,72.19
2022-09-03T10:30:01.797Z,72.75
2022-09-03T10:35:01.414Z,73
2022-09-03T10:40:01.784Z,72.27
2022-09-03T10:45:02.034Z,72.35
2022-09-03T10:50:02.200Z,72.27
2022-09-03T10:55:01.626Z,72.67
2022-09-03T11:00:01.631Z,72.2
2022-09-03T11:05:01.401Z,72.31
2022-09-03T11:10:01.579Z,72.88
2022-09-03T11:15:01.756Z,71.67
2022-09-03T11:20:02.141Z,71.34
2022-09-03T11:25:01.839Z,69.76
2022-09-03T11:30:02.119Z,69.21
2022-09-03T11:35:01.696Z,70.05
2022-09-03T11:40:01.534Z,69.97
2022-09-03T11:45:01.566Z,69.1
2022-09-03T11:50:01.961Z,69.91
2022-09-03T11:55:02.070Z,70.65
2022-09-03T12:00:01.620Z,69.98
2022-09-03T12:05:01.476Z,69.92
2022-09-03T12:10:01.526Z,68.68
2022-09-03T12:15:02.147Z,68.34
2022-09-03T12:20:02.035Z,67.19
2022-09-03T12:25:02.403Z,65.55
2022-09-03T12:30:01.374Z,65.59
2022-09-03T12:35:01.650Z,65.24
2022-09-03T12:40:07.367Z,65.45
2022-09-03T12:45:02.151Z,65.45
2022-09-03T12:50:01.775Z,64.38
2022-09-03T12:55:02.110Z,64.41
2022-09-03T13:00:01.864Z,64.1
2022-09-03T13:05:01.402Z,63.83
2022-09-03T13:10:01.862Z,64.03
2022-09-03T13:15:01.945Z,62.74
2022-09-03T13:20:01.993Z,63.03
2022-09-03T13:25:01.578Z,62.59
2022-09-03T13:30:01.757Z,62.42
2022-09-03T13:35:01.648Z,62.68
2022-09-03T13:40:02.116Z,62.62
2022-09-03T13:45:02.433Z,63.03
2022-09-03T13:50:02.213Z,62.35
2022-09-03T13:55:02.127Z,62.33
2022-09-03T14:00:02.469Z,61.6
2022-09-03T14:05:02.031Z,62.02
2022-09-03T14:10:01.612Z,62.85
2022-09-03T14:15:01.401Z,64.59
2022-09-03T14:20:01.973Z,61.86
2022-09-03T14:25:01.791Z,61.8
2022-09-03T14:30:01.966Z,62.34
2022-09-03T14:35:01.488Z,62.23
2022-09-03T14:40:02.360Z,61.91
2022-09-03T14:45:01.727Z,62.83
2022-09-03T14:50:01.647Z,63.07
2022-09-03T14:55:01.968Z,63.32
2022-09-03T15:00:02.133Z,62.81
2022-09-03T15:05:01.624Z,62.47
2022-09-03T15:10:02.020Z,62.52
2022-09-03T15:15:01.621Z,61.91
2022-09-03T15:20:01.865Z,62.32
2022-09-03T15:25:02.266Z,62.49
2022-09-03T15:30:01.461Z,64.16
2022-09-03T15:35:02.258Z,71.71
2022-09-03T15:40:02.177Z,75.47
2022-09-03T15:45:01.871Z,77.42
2022-09-03T15:50:02.137Z,80.52
2022-09-03T15:55:02.196Z,87.58
2022-09-03T16:00:01.707Z,91.64
2022-09-03T16:05:01.727Z,95.92
2022-09-03T16:10:23.754Z,98.61
2022-09-03T16:15:01.330Z,99.82
2022-09-03T16:20:01.853Z,99.95
2022-09-03T16:25:01.758Z,99.84
2022-09-03T16:30:01.461Z,99.01
2022-09-03T16:35:01.937Z,99.24
2022-09-03T16:40:01.936Z,99.11
2022-09-03T16:45:02.164Z,98.69
2022-09-03T16:50:01.831Z,98.09
2022-09-03T16:55:01.417Z,98.7
2022-09-03T17:00:02.019Z,98.33
2022-09-03T17:05:06.384Z,99.22
2022-09-03T17:10:02.123Z,99.1
2022-09-03T17:15:01.490Z,98.51
2022-09-03T17:20:02.171Z,99.37
2022-09-03T17:25:01.624Z,99.58
2022-09-03T17:30:03.142Z,99.55
2022-09-03T17:35:01.952Z,98.19
2022-09-03T17:40:02.071Z,98.43
2022-09-03T17:45:01.528Z,98.25
2022-09-03T17:50:01.366Z,98.38
2022-09-03T17:55:01.870Z,98.64
2022-09-03T18:00:01.534Z,98.66
2022-09-03T18:05:01.298Z,98.63
2022-09-03T18:10:01.712Z,98.5
2022-09-03T18:15:01.661Z,98.46
2022-09-03T18:20:01.583Z,98.53
2022-09-03T18:25:01.840Z,98.53
2022-09-03T18:30:02.081Z,98.77
2022-09-03T18:35:01.568Z,98.93
2022-09-03T18:40:01.911Z,98.91
2022-09-03T18:45:20.149Z,99.01
2022-09-03T18:50:01.488Z,99.02
2022-09-03T18:55:08.325Z,99.16
2022-09-03T19:00:02.189Z,98.9
2022-09-03T19:05:01.817Z,99.18
2022-09-03T19:10:01.845Z,99.37
2022-09-03T19:15:01.483Z,99.3
2022-09-03T19:20:01.569Z,99.44
2022-09-03T19:25:01.383Z,99.59
2022-09-03T19:30:01.358Z,99.34
2022-09-03T19:35:01.461Z,99.26
2022-09-03T19:40:01.828Z,99.4
2022-09-03T19:45:01.752Z,99.19
2022-09-03T19:50:01.531Z,99.27
2022-09-03T19:55:01.556Z,99.33
2022-09-03T20:00:01.351Z,99.34
2022-09-03T20:05:01.431Z,99.72
2022-09-03T20:10:01.483Z,99.69
2022-09-03T20:15:02.017Z,99.85
2022-09-03T20:20:01.148Z,99.82
2022-09-03T20:25:01.379Z,99.93
2022-09-03T20:30:01.175Z,99.79
2022-09-03T20:35:02.007Z,100.05
2022-09-03T20:40:02.199Z,100.1
2022-09-03T20:45:02.006Z,100.01
2022-09-03T20:50:01.344Z,99.86
2022-09-03T20:55:01.548Z,99.86
2022-09-03T21:00:01.813Z,99.85
2022-09-03T21:05:01.597Z,100.2
2022-09-03T21:10:02.117Z,100.05
2022-09-03T21:15:01.408Z,100.06
2022-09-03T21:20:01.200Z,100.45
2022-09-03T21:25:01.731Z,100.46
2022-09-03T21:30:02.209Z,100.82
2022-09-03T21:35:01.943Z,100.95
2022-09-03T21:40:02.020Z,100.7
2022-09-03T21:45:01.941Z,100.65
2022-09-03T21:50:01.478Z,100.78
2022-09-03T21:55:01.528Z,100.92
2022-09-03T22:00:02.040Z,101.17
2022-09-03T22:05:01.584Z,101.31
2022-09-03T22:10:01.560Z,101.28
2022-09-03T22:15:01.982Z,101.38
2022-09-03T22:20:01.313Z,101.26
2022-09-03T22:25:01.650Z,101.15
2022-09-03T22:30:01.966Z,101.16
2022-09-03T22:35:01.842Z,101.19
2022-09-03T22:40:01.229Z,101.09
2022-09-03T22:45:01.236Z,100.96
2022-09-03T22:50:01.762Z,100.84
2022-09-03T22:55:01.819Z,100.75
2022-09-03T23:00:02.064Z,100.53
2022-09-03T23:05:01.642Z,100.64
2022-09-03T23:10:01.347Z,100.62
2022-09-03T23:15:01.572Z,100.66
2022-09-03T23:20:01.154Z,100.66
2022-09-03T23:25:01.132Z,100.56
2022-09-03T23:30:02.072Z,100.33
2022-09-03T23:35:02.135Z,100.21
2022-09-03T23:40:01.938Z,100.04
2022-09-03T23:45:01.863Z,100.01
2022-09-03T23:50:01.890Z,100.08
2022-09-03T23:55:02.025Z,99.94
